Time;durP1;ratioP1;P1;durP2;ratioP2;P2;SDS_P1;SDS_P2;PMS_P1;PMS_P2;Temp;Humidity;BMP_temperature;BMP_pressure;BME280_temperature;BME280_humidity;BME280_pressure;Samples;Min_cycle;Max_cycle;Signal;HPM_P1;HPM_P2
2024/01/25 00:01:06;;;;;;;32.90;19.27;;;;;;;4.20;93.06;100204.31;5077261;28;20039;-62
2024/01/25 00:03:32;;;;;;;28.00;18.00;;;;;;;3.86;94.58;100201.44;5078393;28;20230;-62
2024/01/25 00:05:57;;;;;;;31.48;18.00;;;;;;;3.93;94.30;100186.97;5078105;28;20054;-64
2024/01/25 00:08:23;;;;;;;30.85;17.83;;;;;;;4.05;93.64;100175.63;5077796;28;20040;-64
2024/01/25 00:10:48;;;;;;;32.92;19.58;;;;;;;4.17;93.50;100176.56;5077868;28;20178;-62
2024/01/25 00:13:14;;;;;;;39.88;21.55;;;;;;;4.11;93.84;100195.31;5077016;28;20044;-63
2024/01/25 00:15:40;;;;;;;38.47;23.25;;;;;;;4.05;94.03;100195.75;5077878;28;20043;-63
2024/01/25 00:18:05;;;;;;;34.70;21.30;;;;;;;3.65;96.19;100216.06;5077325;28;20104;-63
2024/01/25 00:20:31;;;;;;;43.78;24.33;;;;;;;3.89;96.79;100221.34;5077248;28;20342;-64
2024/01/25 00:22:56;;;;;;;47.60;25.92;;;;;;;4.07;96.24;100220.91;5077427;28;20040;-63
2024/01/25 00:25:22;;;;;;;45.10;26.42;;;;;;;4.20;95.71;100230.53;5077291;28;20245;-63
2024/01/25 00:27:47;;;;;;;43.78;24.70;;;;;;;4.32;95.04;100224.41;5077574;28;20029;-63
2024/01/25 00:30:13;;;;;;;51.85;28.90;;;;;;;3.89;95.15;100219.56;5078103;28;20024;-63
2024/01/25 00:32:38;;;;;;;48.60;27.30;;;;;;;4.09;95.37;100202.44;5076959;28;20215;-63
2024/01/25 00:35:05;;;;;;;40.97;25.70;;;;;;;4.24;94.43;100198.75;5076970;28;20044;-64
2024/01/25 00:37:30;;;;;;;48.95;27.02;;;;;;;4.27;93.87;100200.31;5076868;28;20045;-64
2024/01/25 00:39:56;;;;;;;50.92;30.95;;;;;;;4.36;93.59;100195.25;5077462;28;20047;-63
2024/01/25 00:42:23;;;;;;;60.75;34.72;;;;;;;4.51;92.69;100190.66;5077002;28;20041;-63
2024/01/25 00:44:49;;;;;;;52.15;31.40;;;;;;;4.42;93.01;100189.56;5077530;28;20036;-63
2024/01/25 00:47:15;;;;;;;45.40;28.25;;;;;;;3.99;94.04;100177.84;5076825;28;20047;-64
2024/01/25 00:49:41;;;;;;;42.78;26.55;;;;;;;4.00;94.59;100163.78;5077941;28;20063;-64
2024/01/25 00:52:07;;;;;;;44.50;26.35;;;;;;;4.22;94.22;100150.00;5076546;28;20287;-63
2024/01/25 00:54:33;;;;;;;54.25;32.83;;;;;;;4.31;93.16;100151.97;5077634;28;20040;-63
2024/01/25 00:56:58;;;;;;;55.22;32.65;;;;;;;4.33;92.66;100147.44;5076640;28;20388;-63
2024/01/25 00:59:25;;;;;;;43.83;25.73;;;;;;;4.10;93.34;100146.47;5078510;28;20028;-63
2024/01/25 01:01:52;;;;;;;71.35;41.55;;;;;;;4.11;93.59;100148.97;5080182;28;20053;-64
2024/01/25 01:04:19;;;;;;;54.58;29.27;;;;;;;4.03;93.39;100122.47;5080487;28;20111;-64
2024/01/25 01:06:45;;;;;;;54.40;26.83;;;;;;;4.11;93.40;100146.34;5080848;28;20028;-63
2024/01/25 01:09:10;;;;;;;35.20;20.20;;;;;;;3.84;94.23;100128.22;5080766;28;20044;-63
2024/01/25 01:11:36;;;;;;;34.05;18.13;;;;;;;3.80;94.67;100125.94;5080062;28;20302;-64
2024/01/25 01:14:02;;;;;;;29.15;16.10;;;;;;;3.89;95.22;100112.16;5080171;28;20032;-64
2024/01/25 01:16:30;;;;;;;27.77;15.63;;;;;;;3.96;94.62;100109.94;5080696;28;20040;-63
2024/01/25 01:18:56;;;;;;;24.80;14.98;;;;;;;3.99;93.74;100113.16;5079800;28;20044;-63
2024/01/25 01:21:21;;;;;;;26.40;14.90;;;;;;;4.09;93.88;100106.31;5080332;28;20121;-63
2024/01/25 01:23:47;;;;;;;22.98;13.30;;;;;;;4.01;93.79;100100.78;5073067;28;20389;-63
2024/01/25 01:26:12;;;;;;;27.38;14.90;;;;;;;4.04;93.85;100084.00;5080746;28;20033;-64
2024/01/25 01:28:38;;;;;;;26.25;14.20;;;;;;;3.96;93.97;100081.13;5080244;28;20330;-63
2024/01/25 01:31:03;;;;;;;16.13;10.20;;;;;;;3.95;93.28;100090.75;5079488;28;20044;-63
2024/01/25 01:33:29;;;;;;;20.50;11.13;;;;;;;3.86;94.58;100078.34;5080342;28;20041;-63
2024/01/25 01:35:54;;;;;;;19.60;12.77;;;;;;;3.80;93.87;100074.38;5079995;28;20048;-63
2024/01/25 01:38:19;;;;;;;27.20;14.65;;;;;;;4.10;93.08;100083.56;5079822;28;20052;-63
2024/01/25 01:40:46;;;;;;;22.23;12.25;;;;;;;3.86;93.72;100086.19;5079807;28;20048;-64
2024/01/25 01:43:22;;;;;;;28.02;13.38;;;;;;;3.81;93.61;100077.81;5079583;28;20107;-64
2024/01/25 01:45:48;;;;;;;25.48;12.02;;;;;;;3.99;93.37;100057.31;5080181;28;20466;-63
2024/01/25 01:48:14;;;;;;;17.38;11.20;;;;;;;4.05;92.91;100055.06;5080028;28;20440;-63
2024/01/25 01:50:40;;;;;;;15.85;11.63;;;;;;;4.18;92.39;100048.97;5080184;28;20036;-63
2024/01/25 01:53:06;;;;;;;12.77;7.10;;;;;;;4.33;91.49;100048.66;5079687;28;20067;-65
2024/01/25 01:55:32;;;;;;;6.93;5.18;;;;;;;4.37;90.27;100036.16;5071270;28;20054;-65
2024/01/25 01:57:58;;;;;;;7.18;3.83;;;;;;;4.47;89.44;100035.34;5078273;28;20290;-63
2024/01/25 02:00:25;;;;;;;5.07;4.00;;;;;;;4.57;88.69;100035.47;5074968;28;20037;-63
2024/01/25 02:02:51;;;;;;;3.83;2.67;;;;;;;4.61;88.20;100026.41;5078303;28;20053;-63
2024/01/25 02:05:17;;;;;;;4.30;3.22;;;;;;;4.66;87.92;100020.81;5078986;28;20048;-63
2024/01/25 02:07:43;;;;;;;3.47;2.50;;;;;;;4.78;87.46;100031.22;5078494;28;20090;-63
2024/01/25 02:10:09;;;;;;;4.32;2.72;;;;;;;4.81;86.59;100019.63;5078954;28;20059;-63
2024/01/25 02:12:35;;;;;;;4.45;2.63;;;;;;;4.88;86.94;100017.38;5078127;28;20036;-64
2024/01/25 02:15:00;;;;;;;7.05;3.53;;;;;;;4.93;86.15;100018.69;5079502;28;20102;-64
2024/01/25 02:17:26;;;;;;;4.13;2.83;;;;;;;4.95;86.17;100019.41;5077870;28;20032;-62
2024/01/25 02:19:51;;;;;;;6.15;2.95;;;;;;;5.02;86.49;100007.47;5078343;28;20271;-63
2024/01/25 02:22:19;;;;;;;7.75;2.97;;;;;;;5.06;85.63;99994.94;5070029;28;20032;-63
2024/01/25 02:24:45;;;;;;;4.88;2.80;;;;;;;5.11;85.85;99995.41;5079158;28;20256;-64
2024/01/25 02:27:10;;;;;;;4.45;2.67;;;;;;;5.17;85.62;99994.09;5074700;28;20047;-65
2024/01/25 02:29:36;;;;;;;3.88;2.78;;;;;;;5.28;84.94;100004.63;5078384;28;20028;-63
2024/01/25 02:32:02;;;;;;;4.53;2.60;;;;;;;5.37;84.92;99998.63;5069454;28;20041;-63
2024/01/25 02:34:27;;;;;;;5.90;3.03;;;;;;;5.44;84.91;99992.75;5078608;28;20380;-63
2024/01/25 02:36:53;;;;;;;4.95;2.90;;;;;;;5.58;84.63;99990.81;5073437;28;20056;-64
2024/01/25 02:39:18;;;;;;;4.32;3.03;;;;;;;5.64;84.58;100001.66;5078212;28;20198;-64
2024/01/25 02:41:44;;;;;;;3.00;2.65;;;;;;;5.71;84.38;99986.22;5077476;28;20233;-63
2024/01/25 02:44:11;;;;;;;7.15;3.20;;;;;;;5.78;84.54;99980.34;5078268;28;20212;-63
2024/01/25 02:46:38;;;;;;;4.55;2.83;;;;;;;5.83;85.02;99974.72;5078200;28;20043;-64
2024/01/25 02:49:03;;;;;;;4.00;2.95;;;;;;;5.88;85.08;99959.41;5070927;28;20036;-64
2024/01/25 02:51:29;;;;;;;5.05;2.90;;;;;;;5.96;85.25;99959.63;5078828;28;20275;-63
2024/01/25 02:53:55;;;;;;;4.57;2.20;;;;;;;5.96;84.62;99951.75;5074464;28;20070;-63
2024/01/25 02:56:20;;;;;;;4.80;2.30;;;;;;;6.11;85.05;99949.63;5079014;28;20338;-63
2024/01/25 02:58:46;;;;;;;4.63;2.55;;;;;;;6.19;84.45;99954.25;5068514;28;20032;-64
2024/01/25 03:01:11;;;;;;;5.07;2.35;;;;;;;6.25;84.58;99959.03;5077116;28;20346;-64
2024/01/25 03:03:37;;;;;;;2.28;1.98;;;;;;;6.30;84.89;99946.31;5072768;28;20040;-63
2024/01/25 03:06:03;;;;;;;4.05;2.20;;;;;;;6.39;83.85;99951.63;5078316;28;20036;-63
2024/01/25 03:08:29;;;;;;;17.25;8.43;;;;;;;6.48;84.30;99954.44;5077569;28;20108;-63
2024/01/25 03:10:56;;;;;;;5.93;3.00;;;;;;;6.52;84.00;99963.75;5077469;28;20427;-63
2024/01/25 03:13:21;;;;;;;5.32;2.78;;;;;;;6.54;84.30;99941.59;5072176;28;20086;-64
2024/01/25 03:15:47;;;;;;;4.28;2.80;;;;;;;6.60;84.83;99959.50;5076613;28;20032;-64
2024/01/25 03:18:12;;;;;;;4.40;2.75;;;;;;;6.62;83.99;99956.72;5077479;28;20033;-64
2024/01/25 03:20:38;;;;;;;3.90;2.50;;;;;;;6.69;83.54;99963.13;5077404;28;20075;-63
2024/01/25 03:23:03;;;;;;;4.85;2.30;;;;;;;6.72;83.71;99957.59;5077863;28;20048;-62
2024/01/25 03:25:30;;;;;;;3.25;1.85;;;;;;;6.73;84.32;99960.09;5068436;28;20246;-64
2024/01/25 03:27:56;;;;;;;5.68;2.80;;;;;;;6.69;84.08;99952.59;5078607;28;20315;-64
2024/01/25 03:30:21;;;;;;;4.35;2.60;;;;;;;6.68;83.97;99954.41;5073048;28;20052;-63
2024/01/25 03:32:47;;;;;;;4.80;2.25;;;;;;;6.67;84.09;99958.00;5078272;28;20033;-62
2024/01/25 03:35:12;;;;;;;2.60;2.28;;;;;;;6.63;84.99;99943.44;5077772;28;20303;-63
2024/01/25 03:37:38;;;;;;;4.68;2.95;;;;;;;6.67;85.01;99947.47;5078275;28;20040;-63
2024/01/25 03:40:04;;;;;;;3.38;2.00;;;;;;;6.64;85.68;99960.06;5077195;28;20041;-63
2024/01/25 03:42:30;;;;;;;3.47;2.15;;;;;;;6.61;85.67;99948.00;5077345;28;20028;-63
2024/01/25 03:44:55;;;;;;;4.55;2.20;;;;;;;6.63;85.15;99951.34;5077903;28;20087;-64
2024/01/25 03:47:21;;;;;;;2.22;1.50;;;;;;;6.67;85.61;99944.84;5077117;28;20040;-64
2024/01/25 03:49:47;;;;;;;4.40;1.70;;;;;;;6.64;85.60;99939.00;5072811;28;20045;-63
2024/01/25 03:52:13;;;;;;;3.30;1.80;;;;;;;6.67;86.11;99950.09;5074587;28;20333;-63
2024/01/25 03:54:39;;;;;;;3.08;1.88;;;;;;;6.70;86.16;99954.28;5076250;28;20177;-63
2024/01/25 03:57:05;;;;;;;2.45;1.83;;;;;;;6.71;85.59;99948.88;5076283;28;20294;-64
2024/01/25 03:59:31;;;;;;;3.55;2.13;;;;;;;6.71;86.10;99940.16;5078252;28;20066;-64
2024/01/25 04:01:56;;;;;;;2.17;1.50;;;;;;;6.74;86.03;99931.97;5066538;28;20317;-63
2024/01/25 04:04:22;;;;;;;3.65;1.58;;;;;;;6.79;86.96;99940.31;5077247;28;20330;-62
2024/01/25 04:06:48;;;;;;;1.55;1.33;;;;;;;6.84;87.14;99937.28;5072085;28;20060;-61
2024/01/25 04:09:17;;;;;;;2.17;1.40;;;;;;;6.89;86.43;99922.75;5078273;28;20032;-61
2024/01/25 04:11:42;;;;;;;3.20;1.95;;;;;;;6.92;85.96;99903.22;5075817;28;20286;-62
2024/01/25 04:14:08;;;;;;;3.38;1.88;;;;;;;6.93;86.59;99889.94;5077378;28;20028;-62
2024/01/25 04:16:33;;;;;;;3.05;1.88;;;;;;;6.97;86.93;99891.31;5070806;28;20036;-65
2024/01/25 04:18:59;;;;;;;4.60;2.22;;;;;;;6.98;86.72;99881.63;5077257;28;20032;-65
2024/01/25 04:21:25;;;;;;;3.08;2.10;;;;;;;7.03;86.74;99890.78;5076907;28;20044;-63
2024/01/25 04:23:50;;;;;;;1.58;1.30;;;;;;;7.09;86.97;99921.00;5077259;28;20032;-64
2024/01/25 04:26:18;;;;;;;2.33;1.30;;;;;;;7.17;86.68;99925.59;5073148;28;20048;-66
2024/01/25 04:28:44;;;;;;;2.40;1.40;;;;;;;7.22;87.50;99933.91;5073732;28;20024;-65
2024/01/25 04:31:09;;;;;;;1.90;1.13;;;;;;;7.20;87.46;99922.69;5075213;28;20055;-65
2024/01/25 04:33:35;;;;;;;1.58;1.40;;;;;;;7.32;87.22;99929.53;5074450;28;20021;-63
2024/01/25 04:36:01;;;;;;;2.00;1.80;;;;;;;7.34;87.40;99932.84;5081564;28;20082;-64
2024/01/25 04:38:26;;;;;;;2.03;1.40;;;;;;;7.41;86.74;99935.78;5070248;28;20029;-63
2024/01/25 04:40:52;;;;;;;3.65;1.27;;;;;;;7.38;86.90;99921.06;5081923;28;20048;-65
2024/01/25 04:43:17;;;;;;;4.60;2.10;;;;;;;7.38;86.45;99926.34;5070411;28;20040;-63
2024/01/25 04:45:42;;;;;;;4.60;2.28;;;;;;;7.33;87.44;99928.56;5081357;28;20242;-63
2024/01/25 04:48:08;;;;;;;4.57;2.50;;;;;;;7.23;88.20;99928.50;5080556;28;20039;-63
2024/01/25 04:50:34;;;;;;;3.08;2.00;;;;;;;7.24;87.89;99927.53;5080919;28;20040;-64
2024/01/25 04:53:02;;;;;;;3.17;2.13;;;;;;;7.21;88.84;99926.97;5073394;28;20096;-63
2024/01/25 04:55:27;;;;;;;2.22;1.63;;;;;;;7.18;89.12;99925.44;5080688;28;20403;-63
2024/01/25 04:57:53;;;;;;;4.55;1.65;;;;;;;7.18;88.88;99935.16;5077412;28;20044;-63
2024/01/25 05:00:21;;;;;;;2.08;1.60;;;;;;;7.14;89.87;99923.22;5078794;28;20379;-64
2024/01/25 05:02:47;;;;;;;3.42;2.00;;;;;;;7.19;90.32;99929.75;5074935;28;20048;-63
2024/01/25 05:05:12;;;;;;;3.88;1.90;;;;;;;7.20;90.37;99936.69;5081312;28;20039;-63
2024/01/25 05:07:38;;;;;;;3.13;1.63;;;;;;;7.22;91.69;99934.75;5077821;28;20060;-64
2024/01/25 05:10:03;;;;;;;2.53;1.80;;;;;;;7.26;91.32;99940.56;5081095;28;20330;-64
2024/01/25 05:12:29;;;;;;;5.25;3.20;;;;;;;7.29;91.96;99932.44;5079364;28;20032;-65
2024/01/25 05:14:54;;;;;;;3.25;2.42;;;;;;;7.32;91.25;99929.53;5080594;28;20070;-64
2024/01/25 05:17:20;;;;;;;2.83;2.60;;;;;;;7.35;91.69;99929.25;5076259;28;20024;-64
2024/01/25 05:19:45;;;;;;;2.67;2.03;;;;;;;7.39;91.80;99922.75;5080268;28;20246;-63
2024/01/25 05:22:11;;;;;;;3.45;3.03;;;;;;;7.40;92.49;99923.56;5070978;28;20043;-63
2024/01/25 05:24:36;;;;;;;4.65;2.40;;;;;;;7.40;91.90;99911.22;5079522;28;20322;-63
2024/01/25 05:27:02;;;;;;;2.33;2.13;;;;;;;7.54;91.94;99924.00;5074983;28;20067;-65
2024/01/25 05:29:27;;;;;;;2.47;2.05;;;;;;;7.61;92.06;99929.53;5079814;28;20047;-65
2024/01/25 05:31:53;;;;;;;2.63;1.90;;;;;;;7.71;92.35;99913.72;5079628;28;20048;-63
2024/01/25 05:34:18;;;;;;;3.28;1.73;;;;;;;7.76;92.01;99908.88;5079455;28;20066;-63
2024/01/25 05:36:44;;;;;;;3.55;1.98;;;;;;;7.81;92.21;99906.66;5080531;28;20049;-63
2024/01/25 05:39:09;;;;;;;3.70;1.75;;;;;;;7.86;92.19;99907.88;5079033;28;20040;-63
2024/01/25 05:41:35;;;;;;;5.68;2.28;;;;;;;7.92;91.94;99907.31;5080623;28;20101;-63
2024/01/25 05:44:00;;;;;;;2.13;1.63;;;;;;;8.00;92.10;99918.00;5076468;28;20082;-64
2024/01/25 05:46:26;;;;;;;2.95;1.40;;;;;;;8.05;91.95;99922.84;5079452;28;20048;-65
2024/01/25 05:48:51;;;;;;;1.90;1.42;;;;;;;8.02;92.16;99917.84;5071769;28;20036;-63
2024/01/25 05:51:17;;;;;;;3.70;1.30;;;;;;;8.11;92.14;99930.19;5079976;28;20274;-63
2024/01/25 05:53:43;;;;;;;1.75;1.35;;;;;;;8.18;91.60;99925.19;5075382;28;20395;-64
2024/01/25 05:56:08;;;;;;;1.65;1.17;;;;;;;8.25;91.11;99935.03;5079398;28;20322;-65
2024/01/25 05:58:34;;;;;;;3.58;2.35;;;;;;;8.31;91.32;99942.38;5071818;28;20043;-64
2024/01/25 06:00:59;;;;;;;4.47;2.03;;;;;;;8.29;91.23;99951.41;5075566;28;20045;-64
2024/01/25 06:03:24;;;;;;;4.55;2.95;;;;;;;8.36;90.96;99947.28;5079192;28;20222;-63
2024/01/25 06:05:50;;;;;;;4.72;2.83;;;;;;;8.37;91.24;99956.84;5078783;28;20040;-65
2024/01/25 06:08:16;;;;;;;1.95;1.02;;;;;;;8.38;90.73;99960.31;5079876;28;20043;-65
2024/01/25 06:10:42;;;;;;;3.30;1.30;;;;;;;8.43;90.77;99971.28;5078989;28;20255;-63
2024/01/25 06:13:08;;;;;;;3.13;1.40;;;;;;;8.32;91.04;99967.81;5079193;28;20024;-61
2024/01/25 06:15:33;;;;;;;5.00;1.20;;;;;;;8.34;91.40;99978.25;5070871;28;20048;-64
2024/01/25 06:17:59;;;;;;;2.17;0.98;;;;;;;8.28;91.76;99979.59;5079320;28;20036;-63
2024/01/25 06:20:24;;;;;;;0.85;0.85;;;;;;;8.30;nan;99968.88;5075664;28;20055;-65
2024/01/25 06:22:50;;;;;;;2.97;1.02;;;;;;;8.37;91.09;99983.25;5079224;28;20281;-65
2024/01/25 06:25:15;;;;;;;4.25;1.60;;;;;;;8.32;90.88;99973.09;5069063;28;20394;-63
2024/01/25 06:27:41;;;;;;;2.47;1.30;;;;;;;8.40;90.62;99968.94;5078426;28;20035;-63
2024/01/25 06:30:07;;;;;;;1.98;1.13;;;;;;;8.31;89.72;99944.19;5073473;28;20360;-63
2024/01/25 06:32:32;;;;;;;2.00;1.10;;;;;;;8.50;89.70;99977.66;5078928;28;20085;-65
2024/01/25 06:34:58;;;;;;;4.30;1.42;;;;;;;8.55;89.17;99973.63;5078376;28;20043;-63
2024/01/25 06:37:23;;;;;;;1.85;1.40;;;;;;;8.60;89.13;99987.22;5078728;28;20033;-63
2024/01/25 06:39:48;;;;;;;2.60;1.30;;;;;;;8.62;89.09;99984.44;5075718;28;20037;-63
2024/01/25 06:42:14;;;;;;;2.90;1.25;;;;;;;8.61;89.50;99991.50;5075341;28;20040;-63
2024/01/25 06:44:39;;;;;;;2.75;1.40;;;;;;;8.61;89.13;99990.69;5078357;28;20044;-63
2024/01/25 06:47:05;;;;;;;3.05;1.50;;;;;;;8.68;88.88;100010.25;5075801;28;20043;-63
2024/01/25 06:49:31;;;;;;;3.60;1.30;;;;;;;8.71;87.71;100006.50;5079241;28;20032;-61
2024/01/25 06:51:56;;;;;;;1.92;1.00;;;;;;;8.71;87.36;100003.84;5077519;28;20039;-64
2024/01/25 06:54:22;;;;;;;2.13;1.20;;;;;;;8.72;86.25;99987.88;5078915;28;20036;-62
2024/01/25 06:56:47;;;;;;;1.33;0.90;;;;;;;8.83;85.75;99994.78;5073858;28;20032;-64
2024/01/25 06:59:13;;;;;;;2.78;1.13;;;;;;;8.91;84.93;99992.25;5078072;28;20326;-64
2024/01/25 07:01:38;;;;;;;2.15;0.95;;;;;;;9.07;84.33;99996.91;5068337;28;20363;-63
2024/01/25 07:04:03;;;;;;;3.17;1.23;;;;;;;9.19;83.51;99988.63;5078236;28;20357;-64
2024/01/25 07:06:29;;;;;;;2.90;0.95;;;;;;;9.23;82.11;99979.44;5072309;28;20261;-64
2024/01/25 07:08:55;;;;;;;2.42;1.05;;;;;;;9.33;81.52;99992.59;5078001;28;20103;-63
2024/01/25 07:11:21;;;;;;;2.00;1.10;;;;;;;9.41;81.76;99991.88;5076793;28;20037;-63
2024/01/25 07:13:46;;;;;;;4.03;1.30;;;;;;;9.45;80.62;99994.09;5077831;28;20028;-64
2024/01/25 07:16:12;;;;;;;2.83;1.33;;;;;;;9.48;80.40;100000.88;5075500;28;20066;-63
2024/01/25 07:18:37;;;;;;;2.38;1.17;;;;;;;9.50;80.87;99991.81;5073191;28;20324;-61
2024/01/25 07:21:03;;;;;;;3.00;1.30;;;;;;;9.51;79.88;100006.69;5077332;28;20048;-64
2024/01/25 07:23:30;;;;;;;3.15;2.00;;;;;;;9.54;79.39;100002.94;5074892;28;20293;-65
2024/01/25 07:25:55;;;;;;;4.75;1.80;;;;;;;9.53;79.39;100015.31;5076981;28;20076;-65
2024/01/25 07:28:21;;;;;;;4.82;1.65;;;;;;;9.67;79.77;100026.38;5076282;28;20454;-64
2024/01/25 07:30:47;;;;;;;2.47;1.63;;;;;;;9.69;79.24;100025.22;5077472;28;20378;-64
2024/01/25 07:33:13;;;;;;;3.83;1.20;;;;;;;9.83;79.50;100034.47;5075989;28;20032;-65
2024/01/25 07:35:45;;;;;;;5.82;1.67;;;;;;;9.90;78.85;100022.28;5075692;28;20045;-65
2024/01/25 07:38:14;;;;;;;3.70;1.40;;;;;;;9.84;79.04;100038.75;5075548;28;20124;-61
2024/01/25 07:40:39;;;;;;;1.88;1.10;;;;;;;9.80;79.30;100055.91;5076227;28;20052;-64
2024/01/25 07:43:05;;;;;;;4.57;1.58;;;;;;;9.88;79.16;100042.78;5076729;28;20036;-63
2024/01/25 07:45:31;;;;;;;5.30;1.60;;;;;;;9.95;78.55;100048.28;5076058;28;20036;-63
2024/01/25 07:47:57;;;;;;;2.85;1.50;;;;;;;10.05;78.82;100049.06;5076507;28;20058;-63
2024/01/25 07:50:22;;;;;;;3.88;1.55;;;;;;;10.10;78.40;100036.19;5076323;28;20311;-64
2024/01/25 07:52:49;;;;;;;5.82;2.22;;;;;;;10.20;78.26;100058.97;5076266;28;20205;-65
2024/01/25 07:55:15;;;;;;;4.78;1.23;;;;;;;10.26;77.57;100052.25;5076214;28;20041;-64
2024/01/25 07:57:41;;;;;;;2.85;1.40;;;;;;;10.37;76.92;100059.94;5076731;28;20331;-63
2024/01/25 08:00:08;;;;;;;2.78;1.55;;;;;;;10.47;76.64;100049.31;5076086;28;20304;-63
2024/01/25 08:02:34;;;;;;;2.72;1.35;;;;;;;10.55;76.62;100039.59;5076915;28;20078;-65
2024/01/25 08:05:00;;;;;;;3.03;1.30;;;;;;;10.70;77.36;100044.34;5074491;28;20036;-64
2024/01/25 08:07:25;;;;;;;4.70;1.35;;;;;;;10.82;76.02;100040.44;5076405;28;20028;-61
2024/01/25 08:09:52;;;;;;;4.65;1.45;;;;;;;10.90;76.12;100035.19;5076477;28;20048;-64
2024/01/25 08:12:18;;;;;;;3.60;1.45;;;;;;;10.79;75.70;100015.09;5080396;28;20303;-64
2024/01/25 08:14:44;;;;;;;6.40;1.92;;;;;;;10.78;75.20;100021.38;5079419;28;20099;-63
2024/01/25 08:17:09;;;;;;;4.22;2.50;;;;;;;10.79;75.90;100014.28;5080717;28;20028;-63
2024/01/25 08:19:35;;;;;;;2.92;1.38;;;;;;;10.88;75.46;100005.38;5078449;28;20050;-63
2024/01/25 08:22:00;;;;;;;3.03;1.52;;;;;;;11.02;75.19;100003.97;5079969;28;20040;-63
2024/01/25 08:24:26;;;;;;;2.05;1.25;;;;;;;10.99;73.63;100007.75;5080281;28;20032;-63
2024/01/25 08:26:51;;;;;;;3.35;1.70;;;;;;;11.09;75.16;100003.16;5080323;28;20039;-64
2024/01/25 08:29:17;;;;;;;7.57;2.85;;;;;;;11.12;75.12;99989.59;5079083;28;20044;-65
2024/01/25 08:31:42;;;;;;;3.08;1.42;;;;;;;11.12;73.84;99996.72;5079329;28;20039;-63
2024/01/25 08:34:07;;;;;;;1.50;1.35;;;;;;;11.11;73.79;99995.06;5080923;28;20031;-62
2024/01/25 08:36:33;;;;;;;4.47;1.55;;;;;;;11.25;72.54;99985.66;5078655;28;20029;-63
2024/01/25 08:38:58;;;;;;;3.30;1.60;;;;;;;11.30;71.91;99989.50;5081118;28;20047;-61
2024/01/25 08:41:24;;;;;;;3.92;1.00;;;;;;;11.16;72.39;99977.69;5077990;28;20032;-61
2024/01/25 08:43:50;;;;;;;3.38;1.60;;;;;;;11.28;72.62;99986.16;5080230;28;20025;-61
2024/01/25 08:46:15;;;;;;;3.17;1.42;;;;;;;11.33;72.12;99996.28;5079761;28;20032;-61
2024/01/25 08:48:41;;;;;;;3.25;1.30;;;;;;;11.29;71.23;99987.84;5079163;28;20033;-62
2024/01/25 08:51:08;;;;;;;4.40;1.60;;;;;;;11.36;72.00;100003.94;5078997;28;20604;-62
2024/01/25 08:53:34;;;;;;;4.32;2.00;;;;;;;11.48;71.82;100006.16;5079617;28;20063;-61
2024/01/25 08:56:00;;;;;;;6.40;1.80;;;;;;;11.56;71.34;100015.13;5079674;28;20048;-61
2024/01/25 08:58:25;;;;;;;4.72;1.90;;;;;;;11.56;70.39;100008.00;5079564;28;20621;-61
2024/01/25 09:00:50;;;;;;;3.40;1.50;;;;;;;11.50;69.74;100009.47;5078104;28;20054;-61
2024/01/25 09:03:16;;;;;;;5.70;1.40;;;;;;;11.58;70.82;100021.91;5078857;28;20035;-61
2024/01/25 09:05:44;;;;;;;5.00;1.73;;;;;;;11.58;70.83;100015.78;5077927;28;20043;-61
2024/01/25 09:08:12;;;;;;;4.78;1.50;;;;;;;11.61;70.09;100012.81;5079051;28;20093;-62
2024/01/25 09:10:38;;;;;;;3.10;1.42;;;;;;;11.67;71.25;100014.81;5079857;28;20034;-62
2024/01/25 09:13:04;;;;;;;2.45;1.50;;;;;;;11.76;70.10;100025.28;5077047;28;20108;-61
2024/01/25 09:15:29;;;;;;;5.03;1.50;;;;;;;11.70;69.74;100017.97;5079854;28;20221;-61
2024/01/25 09:17:55;;;;;;;1.90;1.35;;;;;;;11.66;71.43;100023.75;5078973;28;20141;-62
2024/01/25 09:20:20;;;;;;;4.82;1.65;;;;;;;11.53;70.88;100026.88;5078815;28;20044;-61
2024/01/25 09:22:46;;;;;;;3.38;1.80;;;;;;;11.51;71.08;100034.16;5078212;28;20033;-64
2024/01/25 09:25:11;;;;;;;2.67;1.42;;;;;;;11.52;71.93;100036.66;5079533;28;20043;-61
2024/01/25 09:27:38;;;;;;;4.13;1.42;;;;;;;11.38;71.06;100049.66;5078561;28;20029;-62
2024/01/25 09:30:05;;;;;;;4.32;1.83;;;;;;;11.45;71.29;100032.16;5078709;28;20060;-62
2024/01/25 09:32:30;;;;;;;3.08;1.40;;;;;;;11.44;71.65;100049.03;5077487;28;20333;-61
2024/01/25 09:34:55;;;;;;;5.07;1.67;;;;;;;11.43;70.85;100026.16;5078769;28;20053;-61
2024/01/25 09:37:23;;;;;;;7.28;2.03;;;;;;;11.40;71.31;100023.81;5078951;28;20032;-61
2024/01/25 09:39:49;;;;;;;5.05;1.58;;;;;;;11.38;71.98;100034.59;5078652;28;20066;-61
2024/01/25 09:42:14;;;;;;;4.90;2.10;;;;;;;11.34;72.95;100027.94;5077504;28;20277;-61
2024/01/25 09:44:41;;;;;;;4.65;2.20;;;;;;;11.45;72.30;100029.50;5077827;28;20033;-61
2024/01/25 09:47:09;;;;;;;8.35;1.77;;;;;;;11.44;70.93;100020.72;5079377;28;20028;-61
2024/01/25 09:49:35;;;;;;;2.60;1.20;;;;;;;11.42;70.51;100035.94;5077691;28;20033;-63
2024/01/25 09:52:03;;;;;;;5.45;1.88;;;;;;;11.51;71.77;100042.13;5079454;28;20041;-62
2024/01/25 09:54:34;;;;;;;4.45;1.60;;;;;;;11.49;70.48;100030.84;5077473;28;20040;-64
2024/01/25 09:57:03;;;;;;;3.35;2.25;;;;;;;11.56;70.88;100034.50;5079136;28;20288;-61
2024/01/25 09:59:28;;;;;;;5.32;2.20;;;;;;;11.59;69.24;100036.84;5077761;28;20036;-64
2024/01/25 10:01:55;;;;;;;3.33;1.63;;;;;;;11.57;69.37;100033.53;5078747;28;20063;-61
2024/01/25 10:04:23;;;;;;;5.68;2.40;;;;;;;11.44;69.81;100031.31;5076736;28;20038;-63
2024/01/25 10:06:48;;;;;;;4.50;2.05;;;;;;;11.40;70.42;100029.97;5079116;28;20043;-64
2024/01/25 10:09:14;;;;;;;5.38;1.73;;;;;;;11.46;68.96;100039.13;5078305;28;20036;-65
2024/01/25 10:11:39;;;;;;;6.45;1.60;;;;;;;11.45;68.04;100043.59;5079257;28;20048;-62
2024/01/25 10:14:06;;;;;;;5.40;2.55;;;;;;;11.45;69.79;100027.69;5075610;28;20036;-62
2024/01/25 10:16:31;;;;;;;4.03;1.90;;;;;;;11.47;69.31;100017.75;5078038;28;20202;-61
2024/01/25 10:18:57;;;;;;;4.97;1.90;;;;;;;11.44;70.77;100014.56;5078638;28;20036;-61
2024/01/25 10:21:23;;;;;;;5.85;1.85;;;;;;;11.45;69.97;100017.09;5077882;28;20270;-63
2024/01/25 10:23:50;;;;;;;5.25;1.83;;;;;;;11.52;70.08;100014.63;5076750;28;20215;-63
2024/01/25 10:26:16;;;;;;;4.28;1.67;;;;;;;11.52;68.66;100004.00;5076553;28;20358;-63
2024/01/25 10:28:42;;;;;;;5.40;1.80;;;;;;;11.47;68.46;99998.34;5079035;28;20055;-63
2024/01/25 10:31:08;;;;;;;6.60;3.13;;;;;;;11.47;69.75;99993.06;5077185;28;20315;-64
2024/01/25 10:33:34;;;;;;;5.95;1.95;;;;;;;11.47;67.55;100001.84;5078697;28;20028;-63
2024/01/25 10:36:04;;;;;;;8.02;1.70;;;;;;;11.46;68.15;99991.41;5076698;28;20376;-61
2024/01/25 10:38:38;;;;;;;4.03;1.90;;;;;;;11.50;68.26;99995.38;5078296;28;20133;-61
2024/01/25 10:41:05;;;;;;;3.55;2.17;;;;;;;11.50;67.84;99998.03;5076967;28;20040;-61
2024/01/25 10:43:32;;;;;;;5.38;2.10;;;;;;;11.49;67.84;99991.06;5077747;28;20032;-64
2024/01/25 10:45:58;;;;;;;3.47;1.60;;;;;;;11.45;70.05;99987.91;5077022;28;20045;-64
2024/01/25 10:48:28;;;;;;;6.22;2.78;;;;;;;11.49;68.92;99986.59;5077576;28;20028;-63
2024/01/25 10:50:55;;;;;;;3.13;1.80;;;;;;;11.54;69.90;99999.38;5076372;28;20062;-63
2024/01/25 10:53:24;;;;;;;3.10;1.73;;;;;;;11.59;70.97;99996.22;5076834;28;20103;-63
2024/01/25 10:55:50;;;;;;;4.82;1.60;;;;;;;11.56;69.38;99994.72;5077083;28;20390;-63
2024/01/25 10:58:16;;;;;;;3.50;1.77;;;;;;;11.57;68.51;99993.75;5077042;28;20310;-64
2024/01/25 11:00:51;;;;;;;5.22;1.75;;;;;;;11.59;66.97;99991.75;5077571;28;20040;-64
2024/01/25 11:03:19;;;;;;;6.15;2.30;;;;;;;11.58;64.67;99991.91;5077007;28;20036;-63
2024/01/25 11:05:47;;;;;;;2.78;1.52;;;;;;;11.59;64.85;99972.38;5076919;28;20051;-63
2024/01/25 11:08:19;;;;;;;4.55;1.95;;;;;;;11.56;66.47;99978.00;5076114;28;20036;-63
2024/01/25 11:10:50;;;;;;;4.88;2.20;;;;;;;11.44;66.09;99980.09;5075847;28;20269;-65
2024/01/25 11:13:16;;;;;;;5.05;1.90;;;;;;;11.50;66.23;99968.88;5075920;28;20086;-64
2024/01/25 11:15:41;;;;;;;3.95;1.88;;;;;;;11.54;66.39;99959.59;5077528;28;20036;-63
2024/01/25 11:18:08;;;;;;;8.00;1.55;;;;;;;11.44;64.86;99964.19;5075533;28;20037;-63
2024/01/25 11:20:36;;;;;;;4.32;1.95;;;;;;;11.34;66.32;99968.78;5077648;28;20036;-63
2024/01/25 11:23:06;;;;;;;2.85;1.73;;;;;;;11.31;65.58;99954.03;5076268;28;20227;-63
2024/01/25 11:25:34;;;;;;;2.55;1.80;;;;;;;11.42;66.56;99959.03;5077929;28;20032;-64